View from home
Forecast from Yr Norsk

 

Here is the weather forecast for Austad/Fjell. First a detailed graph showing the forecast hour-by-hour. Then follows a forecast for the next 10 days.All forecasts are updated regulary.

Weather forecast is built on data from yr.no, delivered by Norwegian Meteorological Institute and NRK.

NB: The units in the first chart are metrical!

 

Meteogram for Austad/Fjell

 

Date
Time
Fc
Precip
Temp
Hum
Wind (gust)
 
Press
2024.02.23 20:00 Cloud 35.4°F 88.7% From south-southwest 13.2mph (29.8mph) 984.4hPa
  21:00 Cloud 35.1°F 91.1% From south 10.1mph (27.7mph) 986.4hPa
  22:00 Cloud 35.4°F 94.0% From south 9.4mph (21.5mph) 987.7hPa
  23:00 Cloud 0.00 - 0.01 in 36.3°F 94.6% From south 10.7mph (22.8mph) 988.6hPa
  00:00 Cloud 0.00 - 0.01 in 36.1°F 95.0% From south 8.1mph (22.8mph) 989.4hPa
2024.02.24 01:00 Cloud 0.00 - 0.01 in 34.7°F 96.4% From south-southeast 5.8mph (17.4mph) 990.3hPa
  02:00 PartlyCloud 34.0°F 96.7% From south 5.4mph (12.3mph) 991.1hPa
  03:00 Cloud 32.5°F 97.0% From south 4.0mph (11.2mph) 991.7hPa
  04:00 PartlyCloud 31.8°F 97.5% From south 3.6mph (8.7mph) 992.2hPa
  05:00 Cloud 33.3°F 97.3% From south 3.4mph (8.5mph) 992.8hPa
  06:00 Cloud 33.4°F 96.7% From south 3.6mph (8.3mph) 993.7hPa
  07:00 Cloud 33.4°F 96.8% From south 5.1mph (11.0mph) 994.4hPa
  08:00 Cloud 0.00 - 0.02 in 33.6°F 97.6% From south 5.8mph (12.1mph) 995.3hPa
  09:00 Cloud 0.00 - 0.02 in 34.2°F 97.1% From south-southwest 5.6mph (12.1mph) 996.1hPa
  10:00 PartlyCloud 0.00 - 0.02 in 35.6°F 95.8% From south-southwest 5.4mph (11.9mph) 996.7hPa
  11:00 PartlyCloud 0.00 - 0.01 in 36.7°F 93.8% From south 5.4mph (12.1mph) 997.3hPa
  12:00 Cloud 37.4°F 92.2% From south 6.5mph (13.6mph) 997.5hPa
  13:00 Cloud 37.8°F 92.1% From south 5.4mph (13.9mph) 997.6hPa
  14:00 Cloud 38.3°F 90.2% From south-southeast 6.7mph (14.8mph) 997.8hPa
  15:00 PartlyCloud 37.9°F 90.2% From south-southeast 6.3mph (15.2mph) 997.9hPa
  16:00 Cloud 36.7°F 94.7% From southeast 5.1mph (13.2mph) 998.0hPa
  17:00 Cloud 35.4°F 98.9% From southeast 4.0mph (11.0mph) 998.3hPa
  18:00 Fog 35.1°F 99.0% From south-southeast 4.5mph (10.1mph) 998.7hPa
  19:00 Fog 34.5°F 99.4% From southeast 2.5mph (9.6mph) 998.9hPa
  20:00 Fog 34.3°F 99.4% From east-southeast 2.2mph (5.4mph) 999.1hPa
  21:00 Fog 0.00 - 0.02 in 33.8°F 99.5% From south-southwest 1.3mph (4.9mph) 999.3hPa
  22:00 Fog 0.00 - 0.01 in 33.8°F 99.5% From west-southwest 1.3mph (4.3mph) 999.3hPa
  23:00 Fog 0.00 - 0.01 in 33.6°F 99.4% From west-southwest 2.5mph (6.7mph) 999.4hPa
  00:00 HeavySleet 0.00 - 0.11 in 33.1°F 99.4% From east 3.1mph (9.6mph) 999.2hPa
2024.02.25 01:00 Sleet 0.00 - 0.03 in 32.9°F 99.4% From north 2.2mph (6.5mph) 998.9hPa
  02:00 Sleet 0.00 - 0.04 in 32.9°F 99.4% From west 1.8mph (5.1mph) 998.8hPa
  03:00 Sleet 0.00 - 0.04 in 33.1°F 99.5% From west 1.3mph (3.8mph) 998.7hPa
  04:00 Fog 0.00 - 0.03 in 33.1°F 99.5% From northwest 1.3mph (2.9mph) 998.7hPa
  05:00 Fog 0.00 - 0.02 in 33.1°F 99.6% From southwest 0.7mph (3.1mph) 998.5hPa
  06:00 LightSleet 0.00 - 0.02 in 33.1°F 99.5% From west-southwest 1.3mph (3.1mph) 998.6hPa
  07:00 Sleet 0.00 - 0.04 in 33.3°F 99.3% From northeast 0.7mph (2.9mph) 998.7hPa
  08:00 LightSleet 0.00 - 0.02 in 33.3°F 99.2% From east-southeast 0.9mph (2.5mph) 999.2hPa
  09:00 LightSleet 0.00 - 0.02 in 33.6°F 99.2% From north-northwest 1.1mph (2.7mph) 999.5hPa
  10:00 Fog 0.00 - 0.02 in 34.2°F 99.2% From northeast 1.1mph (2.9mph) 999.9hPa
  11:00 Fog 0.00 - 0.04 in 34.5°F 99.2% From east-northeast 1.1mph (2.7mph) 1,000.2hPa
  12:00 Fog 0.00 - 0.06 in 34.9°F 99.2% From east 1.3mph (3.1mph) 1,000.6hPa
  13:00 Fog 0.00 - 0.05 in 35.6°F 99.1% From east 1.8mph (4.0mph) 1,000.9hPa
  14:00 Drizzle 0.00 - 0.04 in 36.0°F 99.2% From east-southeast 2.5mph (5.6mph) 1,001.3hPa
  15:00 Fog 0.00 - 0.02 in 35.2°F 99.1% From east 2.5mph (6.0mph) 1,001.6hPa
  16:00 Fog 0.00 - 0.02 in 34.7°F 99.2% From east 1.8mph (4.9mph) 1,002.1hPa
  17:00 Fog 0.00 - 0.01 in 34.3°F 99.3% From east 1.8mph (4.7mph) 1,002.5hPa
  18:00 Fog 0.00 - 0.01 in 33.8°F 99.2% From east-southeast 2.2mph (4.9mph) 1,003.1hPa
  19:00 Fog 0.00 - 0.01 in 33.3°F 99.5% From southeast 1.6mph (5.8mph) 1,003.9hPa
  20:00 Fog 0.00 - 0.01 in 33.1°F 99.5% From northwest 1.1mph (3.6mph) 1,004.6hPa
  21:00 Fog 0.00 - 0.01 in 32.7°F 99.5% From southwest 0.9mph (2.5mph) 1,005.0hPa
  22:00 Fog 0.00 - 0.01 in 32.5°F 99.6% From west-southwest 0.7mph (2.7mph) 1,005.4hPa
  23:00 Fog 0.00 - 0.01 in 32.5°F 99.4% From west 1.8mph (3.8mph) 1,005.9hPa
  00:00 Fog 0.00 - 0.01 in 32.5°F 97.8% From west 1.6mph (4.0mph) 1,006.1hPa
2024.02.26 01:00 Fog 32.7°F 96.5% From west 2.0mph (3.8mph) 1,006.6hPa
  07:00 Cloud 31.5°F 96.4% From west-northwest 3.6mph ( mph) 1,008.1hPa
  13:00 Cloud 36.3°F 72.6% From west-northwest 2.0mph ( mph) 1,011.9hPa
  19:00 Sun 32.5°F 86.0% From northwest 2.9mph ( mph) 1,015.4hPa
  01:00 Sun 27.3°F 87.9% From west-northwest 2.9mph ( mph) 1,017.6hPa
2024.02.27 07:00 Sun 22.6°F 89.9% From west-northwest 2.5mph ( mph) 1,018.0hPa
  13:00 PartlyCloud 32.2°F 73.6% From south-southeast 4.3mph ( mph) 1,016.3hPa
  19:00 Cloud 33.8°F 95.4% From south 6.9mph ( mph) 1,013.8hPa
  01:00 Cloud 35.1°F 95.2% From south 7.8mph ( mph) 1,013.1hPa
2024.02.28 07:00 Cloud 35.1°F 97.2% From south 6.0mph ( mph) 1,011.5hPa
  13:00 Cloud 37.9°F 83.0% From south-southwest 5.6mph ( mph) 1,011.6hPa
  19:00 Cloud 35.1°F 96.3% From south-southeast 4.5mph ( mph) 1,011.3hPa
  01:00 Cloud 34.0°F 93.5% From west-northwest 3.6mph ( mph) 1,012.6hPa
2024.02.29 07:00 Cloud 31.5°F 96.3% From west-northwest 2.9mph ( mph) 1,012.1hPa
  13:00 Cloud 36.3°F 86.7% From south-southeast 4.9mph ( mph) 1,012.1hPa
  19:00 Cloud 36.9°F 97.4% From south-southeast 6.9mph ( mph) 1,010.1hPa
  01:00 Cloud 0.00 - 0.05 in 36.5°F 97.7% From south-southeast 6.3mph ( mph) 1,010.1hPa
2024.03.01 07:00 LightRain 0.00 - 0.20 in 36.9°F 98.7% From south-southeast 6.3mph ( mph) 1,008.1hPa
  13:00 LightRain 0.00 - 0.23 in 37.9°F 93.9% From south-southeast 6.5mph ( mph) 1,007.9hPa
  19:00 Cloud 0.00 - 0.04 in 37.8°F 95.3% From south-southeast 5.4mph ( mph) 1,007.3hPa
  01:00 Cloud 0.00 - 0.06 in 37.8°F 97.8% From north-northeast 4.5mph ( mph) 1,008.5hPa
2024.03.02 07:00 LightRain 0.00 - 0.19 in 36.9°F 98.5% From north-northeast 4.3mph ( mph) 1,008.9hPa
  13:00 LightRain 0.00 - 0.14 in 38.3°F 91.6% From north-northeast 3.8mph ( mph) 1,010.3hPa
  19:00 Cloud 37.8°F 93.0% From north-northeast 4.0mph ( mph) 1,013.4hPa
  01:00 Cloud 35.8°F 95.6% From north-northeast 3.8mph ( mph) 1,017.0hPa
2024.03.03 07:00 Cloud 33.4°F 95.5% From west-northwest 4.3mph ( mph) 1,019.4hPa
  13:00 Cloud 38.8°F 78.4% From north-northeast 3.4mph ( mph) 1,020.2hPa
  19:00 Cloud 37.9°F 83.0% From north-northeast 4.3mph ( mph) 1,021.0hPa
  01:00 LightCloud 31.1°F 93.6% From west-northwest 4.3mph ( mph) 1,024.2hPa
2024.03.04 07:00 Cloud 32.9°F 93.3% From west-northwest 4.5mph ( mph) 1,020.6hPa
  13:00 Cloud 38.7°F 78.4% From north-northeast 3.4mph ( mph) 1,022.8hPa
  19:00 Cloud 36.9°F 78.8% From north-northeast 4.0mph ( mph) 1,022.0hPa
Facebook Facebook Messenger Instagram E-mail